createdAt,value
2018-08-10T00:00:26.174Z,20.20
2018-08-10T00:02:54.642Z,20.20
2018-08-10T00:05:23.091Z,20.10
2018-08-10T00:07:51.496Z,20.10
2018-08-10T00:10:19.931Z,20.10
2018-08-10T00:12:48.352Z,20.10
2018-08-10T00:15:16.842Z,20.10
2018-08-10T00:17:45.204Z,20.10
2018-08-10T00:20:15.032Z,20.10
2018-08-10T00:22:44.220Z,20.10
2018-08-10T00:25:16.407Z,20.00
2018-08-10T00:27:44.837Z,20.10
2018-08-10T00:30:15.755Z,20.00
2018-08-10T00:32:45.524Z,19.90
2018-08-10T00:35:13.975Z,19.80
2018-08-10T00:37:43.183Z,19.70
2018-08-10T00:40:18.336Z,19.60
2018-08-10T00:42:46.944Z,19.60
2018-08-10T00:45:16.304Z,19.50
2018-08-10T00:47:45.106Z,19.40
2018-08-10T00:50:14.598Z,19.40
2018-08-10T00:52:43.727Z,19.30
2018-08-10T00:55:13.911Z,19.30
2018-08-10T00:57:42.700Z,19.20
2018-08-10T01:00:16.227Z,19.20
2018-08-10T01:02:44.784Z,19.10
2018-08-10T01:05:13.245Z,19.00
2018-08-10T01:07:41.638Z,18.90
2018-08-10T01:10:14.147Z,18.80
2018-08-10T01:12:42.714Z,18.80
2018-08-10T01:15:13.173Z,18.70
2018-08-10T01:17:42.864Z,18.70
2018-08-10T01:20:27.911Z,18.70
2018-08-10T01:23:01.739Z,18.60
2018-08-10T01:25:30.121Z,18.50
2018-08-10T01:27:59.679Z,18.50
2018-08-10T01:30:30.455Z,18.50
2018-08-10T01:32:59.264Z,18.50
2018-08-10T01:35:28.345Z,18.50
2018-08-10T01:37:58.013Z,18.50
2018-08-10T01:40:26.524Z,18.50
2018-08-10T01:42:54.952Z,18.50
2018-08-10T01:45:23.440Z,18.50
2018-08-10T01:47:51.913Z,18.40
2018-08-10T01:50:20.388Z,18.30
2018-08-10T01:52:48.941Z,18.30
2018-08-10T01:55:17.517Z,18.20
2018-08-10T01:57:45.933Z,18.10
2018-08-10T02:00:14.342Z,18.10
2018-08-10T02:02:42.788Z,18.00
2018-08-10T02:05:13.820Z,17.90
2018-08-10T02:07:42.648Z,17.90
2018-08-10T02:10:14.778Z,17.90
2018-08-10T02:12:43.995Z,17.80
2018-08-10T02:15:15.489Z,17.80
2018-08-10T02:17:43.980Z,17.80
2018-08-10T02:20:13.988Z,17.80
2018-08-10T02:22:42.581Z,17.80
2018-08-10T02:25:12.608Z,17.70
2018-08-10T02:27:42.004Z,17.70
2018-08-10T02:30:11.724Z,17.60
2018-08-10T02:32:41.100Z,17.50
2018-08-10T02:35:09.630Z,17.50
2018-08-10T02:37:38.809Z,17.50
2018-08-10T02:40:16.017Z,17.40
2018-08-10T02:42:46.427Z,17.40
2018-08-10T02:45:15.278Z,17.40
2018-08-10T02:47:43.985Z,17.40
2018-08-10T02:50:12.546Z,17.40
2018-08-10T02:52:40.992Z,17.40
2018-08-10T02:55:10.277Z,17.30
2018-08-10T02:57:39.025Z,17.20
2018-08-10T03:00:09.231Z,17.20
2018-08-10T03:02:37.769Z,17.10
2018-08-10T03:05:06.903Z,17.10
2018-08-10T03:07:35.345Z,17.00
2018-08-10T03:10:04.192Z,17.00
2018-08-10T03:12:32.651Z,17.00
2018-08-10T03:15:01.254Z,16.90
2018-08-10T03:17:29.758Z,16.90
2018-08-10T03:19:58.265Z,16.80
2018-08-10T03:22:26.657Z,16.80
2018-08-10T03:24:55.133Z,16.80
2018-08-10T03:32:58.641Z,16.80
2018-08-10T03:35:27.049Z,16.70
2018-08-10T03:37:55.689Z,16.70
2018-08-10T03:40:24.089Z,16.60
2018-08-10T03:42:52.465Z,16.60
2018-08-10T03:45:20.928Z,16.50
2018-08-10T03:47:49.313Z,16.50
2018-08-10T03:50:17.818Z,16.50
2018-08-10T03:52:46.214Z,16.50
2018-08-10T03:55:14.642Z,16.50
2018-08-10T03:57:42.995Z,16.50
2018-08-10T04:00:13.504Z,16.50
2018-08-10T04:02:42.120Z,16.50
2018-08-10T04:05:11.788Z,16.50
2018-08-10T04:07:40.398Z,16.50
2018-08-10T04:10:09.868Z,16.50
2018-08-10T04:12:41.789Z,16.50
2018-08-10T04:15:12.520Z,16.50
2018-08-10T04:17:41.040Z,16.40
2018-08-10T04:20:09.840Z,16.40
2018-08-10T04:22:38.286Z,16.40
2018-08-10T04:25:06.670Z,16.40
2018-08-10T04:27:38.059Z,16.40
2018-08-10T04:30:07.722Z,16.40
2018-08-10T04:32:36.224Z,16.40
2018-08-10T04:35:04.852Z,16.40
2018-08-10T04:37:33.367Z,16.40
2018-08-10T04:40:01.850Z,16.40
2018-08-10T04:42:30.301Z,16.40
2018-08-10T04:44:58.826Z,16.40
2018-08-10T04:47:27.388Z,16.40
2018-08-10T04:49:55.770Z,16.40
2018-08-10T04:52:24.268Z,16.30
2018-08-10T04:54:52.679Z,16.30
2018-08-10T04:57:21.076Z,16.30
2018-08-10T04:59:49.470Z,16.30
2018-08-10T05:02:17.880Z,16.30
2018-08-10T05:04:46.385Z,16.30
2018-08-10T05:07:14.829Z,16.20
2018-08-10T05:09:43.301Z,16.20
2018-08-10T05:12:11.712Z,16.20
2018-08-10T05:14:40.146Z,16.20
2018-08-10T05:17:08.593Z,16.10
2018-08-10T05:19:37.051Z,16.10
2018-08-10T05:22:05.549Z,16.20
2018-08-10T05:24:33.953Z,16.20
2018-08-10T05:27:02.333Z,16.20
2018-08-10T05:29:30.846Z,16.30
2018-08-10T05:31:59.390Z,16.40
2018-08-10T05:34:27.896Z,16.50
2018-08-10T05:36:56.350Z,16.60
2018-08-10T05:39:24.781Z,16.70
2018-08-10T05:41:53.225Z,16.80
2018-08-10T05:44:21.629Z,16.80
2018-08-10T05:46:50.157Z,16.90
2018-08-10T05:49:18.556Z,16.90
2018-08-10T05:51:46.962Z,16.90
2018-08-10T05:54:15.662Z,16.90
2018-08-10T05:56:44.101Z,17.00
2018-08-10T05:59:12.498Z,17.10
2018-08-10T06:01:40.947Z,17.20
2018-08-10T06:04:09.390Z,17.20
2018-08-10T06:06:37.814Z,17.30
2018-08-10T06:09:09.739Z,17.40
2018-08-10T06:11:38.166Z,17.40
2018-08-10T06:14:06.560Z,17.40
2018-08-10T06:16:35.062Z,17.50
2018-08-10T06:19:03.527Z,17.50
2018-08-10T06:21:32.176Z,17.60
2018-08-10T06:24:00.571Z,17.70
2018-08-10T06:26:29.029Z,17.80
2018-08-10T06:28:57.412Z,17.80
2018-08-10T06:31:26.354Z,17.90
2018-08-10T06:33:55.210Z,17.90
2018-08-10T06:36:23.641Z,17.90
2018-08-10T06:38:52.091Z,18.00
2018-08-10T06:41:20.528Z,18.10
2018-08-10T06:43:48.937Z,18.10
2018-08-10T06:46:17.388Z,18.10
2018-08-10T06:48:45.865Z,18.20
2018-08-10T06:51:14.406Z,18.20
2018-08-10T06:53:42.748Z,18.30
2018-08-10T06:56:11.201Z,18.30
2018-08-10T06:58:39.569Z,18.30
2018-08-10T07:01:08.130Z,18.30
2018-08-10T07:03:36.471Z,18.40
2018-08-10T07:06:05.039Z,18.50
2018-08-10T07:08:33.408Z,18.60
2018-08-10T07:11:01.832Z,18.60
2018-08-10T07:13:30.451Z,18.80
2018-08-10T07:15:58.844Z,18.90
2018-08-10T07:18:27.312Z,18.90
2018-08-10T07:20:55.710Z,19.00
2018-08-10T07:23:24.162Z,19.10
2018-08-10T07:25:52.639Z,19.20
2018-08-10T07:28:21.308Z,19.20
2018-08-10T07:30:49.735Z,19.30
2018-08-10T07:33:18.142Z,19.30
2018-08-10T07:35:46.572Z,19.40
2018-08-10T07:38:15.101Z,19.50
2018-08-10T07:40:43.557Z,19.50
2018-08-10T07:43:12.345Z,19.60
2018-08-10T07:45:40.792Z,19.70
2018-08-10T07:48:09.417Z,19.70
2018-08-10T07:50:37.889Z,19.90
2018-08-10T07:53:06.926Z,19.90
2018-08-10T07:55:35.374Z,19.90
2018-08-10T07:58:04.039Z,19.90
2018-08-10T08:00:32.447Z,19.90
2018-08-10T08:03:01.371Z,20.00
2018-08-10T08:05:30.738Z,20.10
2018-08-10T08:07:59.199Z,20.30
2018-08-10T08:10:27.702Z,20.40
2018-08-10T08:12:56.156Z,20.60
2018-08-10T08:15:24.612Z,20.70
2018-08-10T08:17:53.126Z,20.80
2018-08-10T08:20:28.228Z,20.90
2018-08-10T08:23:02.913Z,20.90
2018-08-10T08:25:31.353Z,20.90
2018-08-10T08:28:00.589Z,21.10
2018-08-10T08:30:29.043Z,21.20
2018-08-10T08:32:57.873Z,21.30
2018-08-10T08:35:26.339Z,21.30
2018-08-10T08:38:00.091Z,21.40
2018-08-10T08:40:28.535Z,21.30
2018-08-10T08:42:56.981Z,21.40
2018-08-10T08:45:36.513Z,21.50
2018-08-10T08:48:04.870Z,21.60
2018-08-10T08:50:33.280Z,21.70
2018-08-10T08:53:01.749Z,21.70
2018-08-10T08:55:32.783Z,21.70
2018-08-10T08:58:01.221Z,21.90
2018-08-10T09:00:29.817Z,22.00
2018-08-10T09:02:58.433Z,22.20
2018-08-10T09:05:26.945Z,22.50
2018-08-10T09:07:55.701Z,22.70
2018-08-10T09:10:24.130Z,22.60
2018-08-10T09:12:52.745Z,22.20
2018-08-10T09:15:22.051Z,22.10
2018-08-10T09:17:50.552Z,22.20
2018-08-10T09:20:19.003Z,22.50
2018-08-10T09:22:47.441Z,22.80
2018-08-10T09:25:18.082Z,23.10
2018-08-10T09:27:46.602Z,22.70
2018-08-10T09:30:16.866Z,22.30
2018-08-10T09:32:45.355Z,22.20
2018-08-10T09:35:14.493Z,22.60
2018-08-10T09:37:43.352Z,23.10
2018-08-10T09:40:14.938Z,23.20
2018-08-10T09:42:43.716Z,23.10
2018-08-10T09:45:13.089Z,23.10
2018-08-10T09:47:42.136Z,23.10
2018-08-10T09:50:11.901Z,23.30
2018-08-10T09:52:40.538Z,23.30
2018-08-10T09:55:19.045Z,23.00
2018-08-10T09:57:48.050Z,23.10
2018-08-10T10:00:21.813Z,23.50
2018-08-10T10:02:53.164Z,23.80
2018-08-10T10:05:23.007Z,24.00
2018-08-10T10:07:51.548Z,23.70
2018-08-10T10:10:20.126Z,23.70
2018-08-10T10:12:48.758Z,23.80
2018-08-10T10:15:17.257Z,24.10
2018-08-10T10:17:45.803Z,24.30
2018-08-10T10:20:14.607Z,24.00
2018-08-10T10:22:42.986Z,23.80
2018-08-10T10:25:11.508Z,23.90
2018-08-10T10:27:39.993Z,24.00
2018-08-10T10:30:08.889Z,24.20
2018-08-10T10:32:37.484Z,24.40
2018-08-10T10:35:06.673Z,24.50
2018-08-10T10:37:35.339Z,24.60
2018-08-10T10:40:03.885Z,24.80
2018-08-10T10:42:32.382Z,24.40
2018-08-10T10:45:00.813Z,24.40
2018-08-10T10:47:29.334Z,24.90
2018-08-10T10:49:57.748Z,24.90
2018-08-10T10:52:26.256Z,25.00
2018-08-10T10:54:54.780Z,25.20
2018-08-10T10:57:23.326Z,25.30
2018-08-10T10:59:51.747Z,25.70
2018-08-10T11:02:20.217Z,26.10
2018-08-10T11:04:48.702Z,26.10
2018-08-10T11:07:17.093Z,25.70
2018-08-10T11:09:45.647Z,25.60
2018-08-10T11:12:14.192Z,25.40
2018-08-10T11:14:42.629Z,25.40
2018-08-10T11:17:11.154Z,26.00
2018-08-10T11:19:39.661Z,25.80
2018-08-10T11:22:08.173Z,26.00
2018-08-10T11:24:36.575Z,26.20
2018-08-10T11:27:05.168Z,26.60
2018-08-10T11:29:33.889Z,26.90
2018-08-10T11:32:02.437Z,26.70
2018-08-10T11:34:30.807Z,26.30
2018-08-10T11:36:59.289Z,26.40
2018-08-10T11:39:27.734Z,26.50
2018-08-10T11:41:56.143Z,27.00
2018-08-10T11:44:24.649Z,27.40
2018-08-10T11:46:53.135Z,27.40
2018-08-10T11:49:21.601Z,26.80
2018-08-10T11:51:50.059Z,26.80
2018-08-10T11:54:18.569Z,26.50
2018-08-10T11:56:47.089Z,26.60
2018-08-10T11:59:15.685Z,26.70
2018-08-10T12:01:44.138Z,26.40
2018-08-10T12:04:12.605Z,26.90
2018-08-10T12:06:41.109Z,27.60
2018-08-10T12:09:11.110Z,28.40
2018-08-10T12:11:39.848Z,28.60
2018-08-10T12:14:09.068Z,29.10
2018-08-10T12:16:37.446Z,29.60
2018-08-10T12:19:06.098Z,30.10
2018-08-10T12:21:34.477Z,30.10
2018-08-10T12:24:02.885Z,30.70
2018-08-10T12:26:31.265Z,30.60
2018-08-10T12:28:59.715Z,29.10
2018-08-10T12:31:28.234Z,27.90
2018-08-10T12:33:56.857Z,27.00
2018-08-10T12:36:25.333Z,26.50
2018-08-10T12:38:53.831Z,25.80
2018-08-10T12:41:22.234Z,25.30
2018-08-10T12:43:50.745Z,24.80
2018-08-10T12:46:19.197Z,24.30
2018-08-10T12:48:47.655Z,24.10
2018-08-10T12:51:16.113Z,24.00
2018-08-10T12:53:44.549Z,23.90
2018-08-10T12:56:13.019Z,23.90
2018-08-10T12:58:41.474Z,24.00
2018-08-10T13:01:10.054Z,25.90
2018-08-10T13:03:38.480Z,29.00
2018-08-10T13:06:07.088Z,29.50
2018-08-10T13:08:35.498Z,29.70
2018-08-10T13:11:04.215Z,28.90
2018-08-10T13:13:32.609Z,28.60
2018-08-10T13:16:01.175Z,28.70
2018-08-10T13:18:29.716Z,29.10
2018-08-10T13:20:58.136Z,29.70
2018-08-10T13:23:26.516Z,30.10
2018-08-10T13:25:54.995Z,29.90
2018-08-10T13:28:23.417Z,29.50
2018-08-10T13:30:51.783Z,29.40
2018-08-10T13:33:20.188Z,30.40
2018-08-10T13:35:48.605Z,31.60
2018-08-10T13:38:16.996Z,34.30
2018-08-10T13:40:45.430Z,35.70
2018-08-10T13:43:14.727Z,37.40
2018-08-10T13:45:43.132Z,38.10
2018-08-10T13:48:11.648Z,35.50
2018-08-10T13:50:40.055Z,33.60
2018-08-10T13:53:08.653Z,31.40
2018-08-10T13:55:37.153Z,29.90
2018-08-10T13:58:05.567Z,28.80
2018-08-10T14:00:34.003Z,28.00
2018-08-10T14:03:02.475Z,28.10
2018-08-10T14:05:30.913Z,28.50
2018-08-10T14:07:59.405Z,29.60
2018-08-10T14:10:27.848Z,30.50
2018-08-10T14:12:56.320Z,30.30
2018-08-10T14:15:24.707Z,29.00
2018-08-10T14:17:53.210Z,28.90
2018-08-10T14:20:21.691Z,28.50
2018-08-10T14:22:50.124Z,28.00
2018-08-10T14:25:18.689Z,27.30
2018-08-10T14:27:47.245Z,26.90
2018-08-10T14:30:16.307Z,26.60
2018-08-10T14:32:44.800Z,26.80
2018-08-10T14:35:13.671Z,26.80
2018-08-10T14:37:42.085Z,26.60
2018-08-10T14:40:12.793Z,26.60
2018-08-10T14:42:41.335Z,27.40
2018-08-10T14:45:12.780Z,28.00
2018-08-10T14:47:41.287Z,28.70
2018-08-10T14:50:11.873Z,29.10
2018-08-10T14:52:40.498Z,29.10
2018-08-10T14:55:10.762Z,29.10
2018-08-10T14:57:39.248Z,28.90
2018-08-10T15:00:10.361Z,28.50
2018-08-10T15:02:38.818Z,28.50
2018-08-10T15:05:07.788Z,28.60
2018-08-10T15:07:36.803Z,29.20
2018-08-10T15:10:06.729Z,29.40
2018-08-10T15:12:38.744Z,29.30
2018-08-10T15:15:09.053Z,28.70
2018-08-10T15:17:37.499Z,28.90
2018-08-10T15:20:06.679Z,29.10
2018-08-10T15:22:35.157Z,29.10
2018-08-10T15:25:03.742Z,28.60
2018-08-10T15:27:32.165Z,28.20
2018-08-10T15:30:00.676Z,27.60
2018-08-10T15:32:29.124Z,27.60
2018-08-10T15:34:57.565Z,27.50
2018-08-10T15:37:26.381Z,27.40
2018-08-10T15:39:54.803Z,27.30
2018-08-10T15:42:23.234Z,27.50
2018-08-10T15:44:51.618Z,27.50
2018-08-10T15:47:20.062Z,27.50
2018-08-10T15:49:48.494Z,27.10
2018-08-10T15:52:17.013Z,27.00
2018-08-10T15:54:45.393Z,26.90
2018-08-10T15:57:13.827Z,26.80
2018-08-10T15:59:42.242Z,26.70
2018-08-10T16:02:10.807Z,26.60
2018-08-10T16:04:39.296Z,26.30
2018-08-10T16:07:07.821Z,25.90
2018-08-10T16:09:36.195Z,25.80
2018-08-10T16:12:04.594Z,25.90
2018-08-10T16:14:33.004Z,25.90
2018-08-10T16:17:01.676Z,25.80
2018-08-10T16:19:30.661Z,25.80
2018-08-10T16:21:59.209Z,26.00
2018-08-10T16:24:27.698Z,26.20
2018-08-10T16:26:56.159Z,26.30
2018-08-10T16:29:24.604Z,26.10
2018-08-10T16:31:53.070Z,26.20
2018-08-10T16:34:23.332Z,26.40
2018-08-10T16:36:51.759Z,26.40
2018-08-10T16:39:20.243Z,26.50
2018-08-10T16:41:48.717Z,26.60
2018-08-10T16:44:17.119Z,26.70
2018-08-10T16:46:45.531Z,26.90
2018-08-10T16:49:13.963Z,27.00
2018-08-10T16:51:42.448Z,26.90
2018-08-10T16:54:10.826Z,26.60
2018-08-10T16:56:39.240Z,26.00
2018-08-10T16:59:07.969Z,26.00
2018-08-10T17:01:36.428Z,26.30
2018-08-10T17:04:04.946Z,26.90
2018-08-10T17:06:33.361Z,27.10
2018-08-10T17:09:01.890Z,26.60
2018-08-10T17:11:30.851Z,26.20
2018-08-10T17:13:59.232Z,25.60
2018-08-10T17:16:27.639Z,25.40
2018-08-10T17:18:56.152Z,25.60
2018-08-10T17:21:24.628Z,25.50
2018-08-10T17:23:53.077Z,25.50
2018-08-10T17:26:21.505Z,25.30
2018-08-10T17:28:49.963Z,25.40
2018-08-10T17:31:18.401Z,25.50
2018-08-10T17:33:46.841Z,25.30
2018-08-10T17:36:15.313Z,25.00
2018-08-10T17:38:43.775Z,24.80
2018-08-10T17:41:12.233Z,24.70
2018-08-10T17:43:40.754Z,24.60
2018-08-10T17:46:09.744Z,24.50
2018-08-10T17:48:38.179Z,24.40
2018-08-10T17:51:06.650Z,24.30
2018-08-10T17:53:35.132Z,24.20
2018-08-10T17:56:03.603Z,24.10
2018-08-10T17:58:32.220Z,24.00
2018-08-10T18:01:00.617Z,23.90
2018-08-10T18:03:29.433Z,23.80
2018-08-10T18:05:57.908Z,23.70
2018-08-10T18:08:26.329Z,23.60
2018-08-10T18:10:55.234Z,23.50
2018-08-10T18:16:00.489Z,23.50
2018-08-10T18:18:29.272Z,23.40
2018-08-10T18:20:57.731Z,23.20
2018-08-10T18:23:26.116Z,23.10
2018-08-10T18:25:54.593Z,23.00
2018-08-10T18:28:23.378Z,22.90
2018-08-10T18:30:51.885Z,22.80
2018-08-10T18:33:20.272Z,22.70
2018-08-10T18:35:48.812Z,22.60
2018-08-10T18:38:17.269Z,22.60
2018-08-10T18:40:45.829Z,22.50
2018-08-10T18:43:14.160Z,22.50
2018-08-10T18:45:42.527Z,22.40
2018-08-10T18:48:10.982Z,22.30
2018-08-10T18:50:39.528Z,22.20
2018-08-10T18:53:07.944Z,22.10
2018-08-10T18:55:36.457Z,22.00
2018-08-10T18:58:05.756Z,21.90
2018-08-10T19:00:34.348Z,21.80
2018-08-10T19:03:02.868Z,21.80
2018-08-10T19:05:31.378Z,21.70
2018-08-10T19:07:59.893Z,21.60
2018-08-10T19:10:29.138Z,21.50
2018-08-10T19:12:57.681Z,21.50
2018-08-10T19:15:26.169Z,21.40
2018-08-10T19:17:54.880Z,21.30
2018-08-10T19:20:23.420Z,21.20
2018-08-10T19:22:51.936Z,21.10
2018-08-10T19:25:20.408Z,21.10
2018-08-10T19:27:48.999Z,21.00
2018-08-10T19:30:21.053Z,21.00
2018-08-10T19:32:49.494Z,20.90
2018-08-10T19:35:18.662Z,20.90
2018-08-10T19:37:47.190Z,20.80
2018-08-10T19:40:17.016Z,20.80
2018-08-10T19:42:45.733Z,20.70
2018-08-10T19:45:15.583Z,20.80
2018-08-10T19:47:44.401Z,20.70
2018-08-10T19:50:14.319Z,20.70
2018-08-10T19:52:43.025Z,20.70
2018-08-10T19:55:13.790Z,20.70
2018-08-10T19:57:42.371Z,20.70
2018-08-10T20:00:12.643Z,20.60
2018-08-10T20:02:41.365Z,20.60
2018-08-10T20:05:10.584Z,20.50
2018-08-10T20:07:39.468Z,20.50
2018-08-10T20:10:08.878Z,20.40
2018-08-10T20:12:37.678Z,20.40
2018-08-10T20:15:10.928Z,20.30
2018-08-10T20:17:39.484Z,20.30
2018-08-10T20:20:08.842Z,20.20
2018-08-10T20:22:37.335Z,20.20
2018-08-10T20:25:06.714Z,20.10
2018-08-10T20:27:35.421Z,20.10
2018-08-10T20:30:04.931Z,20.10
2018-08-10T20:32:33.615Z,20.10
2018-08-10T20:35:02.158Z,20.00
2018-08-10T20:37:30.616Z,20.00
2018-08-10T20:39:59.055Z,20.00
2018-08-10T20:42:27.486Z,20.00
2018-08-10T20:44:55.912Z,20.00
2018-08-10T20:47:30.777Z,19.90
2018-08-10T20:49:59.276Z,19.80
2018-08-10T20:52:28.099Z,19.80
2018-08-10T20:54:56.616Z,19.70
2018-08-10T20:57:25.014Z,19.70
2018-08-10T20:59:53.479Z,19.70
2018-08-10T21:02:21.906Z,19.60
2018-08-10T21:04:50.385Z,19.50
2018-08-10T21:07:18.834Z,19.40
2018-08-10T21:09:47.371Z,19.40
2018-08-10T21:12:15.778Z,19.30
2018-08-10T21:14:46.401Z,19.20
2018-08-10T21:17:14.846Z,19.20
2018-08-10T21:19:43.350Z,19.10
2018-08-10T21:22:11.893Z,19.10
2018-08-10T21:24:40.391Z,19.00
2018-08-10T21:27:10.851Z,19.00
2018-08-10T21:29:39.485Z,19.00
2018-08-10T21:32:13.460Z,19.00
2018-08-10T21:34:41.956Z,19.00
2018-08-10T21:37:10.566Z,19.00
2018-08-10T21:39:39.459Z,19.00
2018-08-10T21:42:08.170Z,19.00
2018-08-10T21:44:38.331Z,19.00
2018-08-10T21:47:07.326Z,18.90
2018-08-10T21:49:35.708Z,18.90
2018-08-10T21:52:04.336Z,18.80
2018-08-10T21:54:32.768Z,18.70
2018-08-10T21:57:01.237Z,18.60
2018-08-10T21:59:30.119Z,18.50
2018-08-10T22:01:58.927Z,18.40
2018-08-10T22:04:31.994Z,18.30
2018-08-10T22:07:01.192Z,18.30
2018-08-10T22:09:29.640Z,18.20
2018-08-10T22:11:58.373Z,18.20
2018-08-10T22:14:31.947Z,18.10
2018-08-10T22:17:05.577Z,18.10
2018-08-10T22:19:34.155Z,18.20
2018-08-10T22:22:02.598Z,18.20
2018-08-10T22:24:31.005Z,18.20
2018-08-10T22:27:00.641Z,18.30
2018-08-10T22:29:29.096Z,18.30
2018-08-10T22:31:57.640Z,18.30
2018-08-10T22:34:26.127Z,18.30
2018-08-10T22:36:54.835Z,18.30
2018-08-10T22:39:23.489Z,18.30
2018-08-10T22:41:52.131Z,18.30
2018-08-10T22:49:19.104Z,18.20
2018-08-10T22:51:47.559Z,18.10
2018-08-10T22:54:15.962Z,18.10
2018-08-10T22:56:44.464Z,18.00
2018-08-10T22:59:12.881Z,18.00
2018-08-10T23:01:41.428Z,18.00
2018-08-10T23:04:09.881Z,17.90
2018-08-10T23:06:38.277Z,17.90
2018-08-10T23:09:08.676Z,17.90
2018-08-10T23:11:37.175Z,17.90
2018-08-10T23:14:05.604Z,17.90
2018-08-10T23:16:34.101Z,17.90
2018-08-10T23:19:02.490Z,17.90
2018-08-10T23:21:30.954Z,17.90
2018-08-10T23:23:59.363Z,17.90
2018-08-10T23:26:27.764Z,17.90
2018-08-10T23:28:56.145Z,17.90
2018-08-10T23:31:24.546Z,17.80
2018-08-10T23:33:52.944Z,17.80
2018-08-10T23:36:21.364Z,17.80
2018-08-10T23:38:49.789Z,17.80
2018-08-10T23:41:18.236Z,17.70
2018-08-10T23:43:46.675Z,17.70
2018-08-10T23:46:15.151Z,17.60
2018-08-10T23:48:43.650Z,17.60
2018-08-10T23:51:12.000Z,17.50
2018-08-10T23:53:40.408Z,17.50
2018-08-10T23:56:08.830Z,17.40
2018-08-10T23:58:37.465Z,17.40
